createdAt,value
2023-01-03T00:03:38.777Z,100
2023-01-03T00:13:39.434Z,100
2023-01-03T00:23:40.354Z,100
2023-01-03T00:33:40.725Z,100
2023-01-03T00:43:41.754Z,100
2023-01-03T00:53:42.263Z,100
2023-01-03T01:03:42.513Z,100
2023-01-03T01:13:42.811Z,100
2023-01-03T01:23:42.961Z,100
2023-01-03T01:43:44.581Z,100
2023-01-03T01:53:44.861Z,100
2023-01-03T02:03:45.593Z,100
2023-01-03T02:13:45.613Z,100
2023-01-03T02:23:46.343Z,100
2023-01-03T02:33:46.811Z,100
2023-01-03T02:43:47.610Z,100
2023-01-03T03:03:48.184Z,100
2023-01-03T03:23:49.059Z,100
2023-01-03T03:33:49.621Z,100
2023-01-03T03:43:50.557Z,100
2023-01-03T03:53:51.629Z,100
2023-01-03T04:03:52.754Z,100
2023-01-03T04:13:52.848Z,100
2023-01-03T04:23:53.225Z,100
2023-01-03T04:33:53.722Z,100
2023-01-03T04:43:54.049Z,100
2023-01-03T04:53:55.065Z,100
2023-01-03T05:33:57.937Z,100
2023-01-03T05:53:58.754Z,100
2023-01-03T06:03:59.757Z,100
2023-01-03T06:14:00.234Z,100
2023-01-03T06:24:00.393Z,100
2023-01-03T06:44:01.996Z,100
2023-01-03T06:54:02.309Z,100
2023-01-03T07:04:02.642Z,100
2023-01-03T07:14:03.149Z,100
2023-01-03T07:34:04.587Z,100
2023-01-03T08:44:07.971Z,100
2023-01-03T08:54:08.643Z,100
2023-01-03T09:04:09.218Z,100
2023-01-03T09:14:09.396Z,100
2023-01-03T09:24:09.969Z,100
2023-01-03T09:34:10.557Z,100
2023-01-03T09:44:11.484Z,100
2023-01-03T09:54:12.304Z,100
2023-01-03T10:14:13.003Z,100
2023-01-03T10:24:13.160Z,100
2023-01-03T10:34:13.708Z,100
2023-01-03T10:44:14.252Z,100
2023-01-03T10:54:14.646Z,100
2023-01-03T11:04:14.720Z,100
2023-01-03T11:14:15.192Z,100
2023-01-03T11:34:15.510Z,100
2023-01-03T11:44:16.197Z,99
2023-01-03T11:54:16.364Z,99
2023-01-03T12:14:17.393Z,99
2023-01-03T12:24:17.905Z,99
2023-01-03T12:34:18.582Z,99
2023-01-03T12:44:19.567Z,98
2023-01-03T12:54:20.239Z,97
2023-01-03T13:04:23.472Z,96
2023-01-03T13:14:21.901Z,96
2023-01-03T13:24:22.417Z,95
2023-01-03T13:34:22.634Z,95
2023-01-03T13:44:22.807Z,95
2023-01-03T13:54:23.711Z,94
2023-01-03T14:04:24.322Z,93
2023-01-03T14:24:25.700Z,91
2023-01-03T14:34:26.314Z,89
2023-01-03T14:44:26.576Z,90
2023-01-03T14:54:26.983Z,89
2023-01-03T15:04:27.280Z,87
2023-01-03T15:14:27.845Z,88
2023-01-03T15:24:28.339Z,86
2023-01-03T15:34:29.076Z,86
2023-01-03T15:44:29.563Z,87
2023-01-03T15:54:29.856Z,88
2023-01-03T16:04:30.023Z,88
2023-01-03T16:14:30.916Z,88
2023-01-03T16:24:31.091Z,88
2023-01-03T16:34:33.887Z,89
2023-01-03T17:04:33.818Z,91
2023-01-03T17:14:33.917Z,92
2023-01-03T17:24:34.848Z,92
2023-01-03T17:44:36.660Z,93
2023-01-03T17:54:37.090Z,93
2023-01-03T18:14:39.181Z,92
2023-01-03T18:24:39.687Z,92
2023-01-03T18:44:40.526Z,91
2023-01-03T19:04:45.106Z,89
2023-01-03T19:14:46.449Z,88
2023-01-03T19:24:42.155Z,88
2023-01-03T19:44:43.590Z,88
2023-01-03T20:04:43.945Z,88
2023-01-03T20:14:44.763Z,88
2023-01-03T20:24:45.304Z,87
2023-01-03T20:34:45.676Z,87
2023-01-03T20:44:46.178Z,88
2023-01-03T20:54:46.793Z,88
2023-01-03T21:04:47.637Z,88
2023-01-03T21:14:48.692Z,89
2023-01-03T21:24:53.882Z,89
2023-01-03T21:34:49.746Z,89
2023-01-03T21:54:50.897Z,90
2023-01-03T22:04:51.650Z,90
2023-01-03T22:24:53.367Z,90
2023-01-03T22:34:54.245Z,90
2023-01-03T22:44:54.577Z,90
2023-01-03T22:54:55.202Z,89
2023-01-03T23:04:56.150Z,89
2023-01-03T23:14:56.997Z,89
2023-01-03T23:24:57.166Z,88
2023-01-03T23:34:57.970Z,88
2023-01-03T23:44:58.764Z,88
